createdAt,value
2018-07-09T00:02:15.195Z,15.90
2018-07-09T00:07:18.493Z,15.80
2018-07-09T00:09:50.433Z,15.70
2018-07-09T00:12:22.356Z,15.80
2018-07-09T00:14:54.332Z,15.80
2018-07-09T00:17:26.187Z,16.00
2018-07-09T00:19:58.232Z,16.00
2018-07-09T00:22:30.087Z,16.20
2018-07-09T00:25:02.093Z,16.20
2018-07-09T00:27:34.592Z,16.10
2018-07-09T00:32:37.692Z,15.80
2018-07-09T00:35:09.785Z,15.60
2018-07-09T00:37:41.715Z,15.50
2018-07-09T00:40:13.655Z,15.40
2018-07-09T00:42:46.464Z,15.30
2018-07-09T00:45:18.512Z,15.50
2018-07-09T00:47:50.984Z,15.30
2018-07-09T00:50:22.912Z,15.60
2018-07-09T00:52:55.015Z,16.10
2018-07-09T00:57:58.163Z,16.40
2018-07-09T01:00:30.155Z,16.10
2018-07-09T01:03:02.036Z,16.10
2018-07-09T01:05:34.045Z,16.20
2018-07-09T01:08:05.942Z,15.80
2018-07-09T01:10:53.091Z,15.70
2018-07-09T01:13:44.283Z,15.30
2018-07-09T01:16:16.156Z,15.40
2018-07-09T01:21:19.484Z,15.10
2018-07-09T01:23:51.452Z,15.10
2018-07-09T01:28:55.422Z,15.30
2018-07-09T01:31:27.286Z,15.40
2018-07-09T01:36:30.412Z,15.80
2018-07-09T01:39:02.532Z,15.70
2018-07-09T01:41:34.352Z,15.80
2018-07-09T01:44:06.242Z,15.70
2018-07-09T01:46:38.072Z,15.70
2018-07-09T01:49:09.800Z,15.70
2018-07-09T01:51:41.360Z,15.90
2018-07-09T01:54:13.001Z,15.90
2018-07-09T01:56:44.613Z,15.70
2018-07-09T01:59:16.321Z,15.30
2018-07-09T02:04:19.240Z,15.30
2018-07-09T02:06:50.869Z,15.20
2018-07-09T02:09:22.598Z,15.10
2018-07-09T02:11:54.178Z,15.10
2018-07-09T02:14:25.766Z,14.80
2018-07-09T02:16:57.398Z,14.70
2018-07-09T02:19:29.183Z,14.70
2018-07-09T02:24:31.880Z,14.90
2018-07-09T02:27:03.493Z,15.00
2018-07-09T02:29:35.314Z,15.40
2018-07-09T02:32:07.547Z,15.30
2018-07-09T02:34:39.201Z,15.00
2018-07-09T02:37:10.822Z,14.80
2018-07-09T02:39:42.420Z,14.90
2018-07-09T02:42:14.039Z,15.20
2018-07-09T02:44:45.692Z,15.10
2018-07-09T02:47:17.338Z,15.20
2018-07-09T02:49:49.040Z,15.10
2018-07-09T02:52:20.642Z,14.90
2018-07-09T02:54:52.294Z,15.10
2018-07-09T02:57:23.922Z,15.20
2018-07-09T02:59:55.620Z,14.90
2018-07-09T03:02:27.202Z,14.60
2018-07-09T03:04:58.902Z,14.50
2018-07-09T03:07:30.540Z,14.50
2018-07-09T03:12:33.199Z,14.90
2018-07-09T03:15:04.929Z,15.00
2018-07-09T03:17:36.602Z,15.00
2018-07-09T03:20:08.240Z,14.80
2018-07-09T03:22:39.890Z,14.80
2018-07-09T03:25:11.502Z,14.70
2018-07-09T03:27:43.081Z,14.70
2018-07-09T03:30:14.722Z,14.80
2018-07-09T03:32:46.299Z,14.90
2018-07-09T03:35:18.176Z,15.10
2018-07-09T03:37:49.826Z,15.20
2018-07-09T03:42:52.391Z,15.50
2018-07-09T03:45:24.082Z,15.40
2018-07-09T03:47:55.739Z,15.40
2018-07-09T03:50:27.405Z,15.40
2018-07-09T03:52:59.060Z,15.10
2018-07-09T03:55:30.859Z,15.10
2018-07-09T03:58:02.580Z,15.40
2018-07-09T04:00:34.260Z,15.50
2018-07-09T04:03:05.883Z,15.50
2018-07-09T04:05:37.519Z,15.50
2018-07-09T04:08:09.164Z,15.10
2018-07-09T04:10:40.858Z,15.30
2018-07-09T04:15:43.524Z,15.50
2018-07-09T04:18:15.138Z,15.50
2018-07-09T04:20:46.756Z,15.50
2018-07-09T04:23:18.354Z,15.50
2018-07-09T04:30:52.711Z,15.10
2018-07-09T04:35:55.380Z,15.10
2018-07-09T04:38:26.931Z,15.30
2018-07-09T04:40:58.773Z,15.40
2018-07-09T04:43:30.409Z,15.70
2018-07-09T04:46:02.125Z,15.70
2018-07-09T04:51:05.101Z,15.60
2018-07-09T04:53:36.818Z,15.60
2018-07-09T04:56:08.447Z,15.70
2018-07-09T04:58:40.162Z,15.70
2018-07-09T05:03:42.822Z,15.10
2018-07-09T05:08:45.419Z,15.60
2018-07-09T05:11:17.281Z,15.60
2018-07-09T05:13:48.980Z,15.40
2018-07-09T05:16:20.722Z,15.40
2018-07-09T05:18:52.345Z,15.40
2018-07-09T05:21:23.999Z,15.60
2018-07-09T05:23:56.020Z,15.80
2018-07-09T05:26:27.779Z,15.80
2018-07-09T05:28:59.400Z,16.00
2018-07-09T05:31:31.090Z,15.70
2018-07-09T05:34:02.695Z,15.80
2018-07-09T05:36:34.642Z,15.80
2018-07-09T05:39:07.019Z,15.60
2018-07-09T05:41:38.779Z,15.80
2018-07-09T05:44:10.764Z,15.80
2018-07-09T05:49:14.150Z,15.90
2018-07-09T05:51:46.022Z,16.00
2018-07-09T05:54:17.802Z,16.20
2018-07-09T05:56:49.479Z,16.40
2018-07-09T05:59:21.179Z,16.50
2018-07-09T06:04:23.899Z,16.30
2018-07-09T06:06:55.772Z,16.40
2018-07-09T06:09:27.579Z,16.40
2018-07-09T06:11:59.505Z,16.60
2018-07-09T06:17:02.736Z,16.60
2018-07-09T06:19:34.466Z,16.60
2018-07-09T06:22:06.359Z,16.70
2018-07-09T06:27:09.014Z,16.80
2018-07-09T06:32:11.831Z,16.80
2018-07-09T06:34:43.622Z,16.80
2018-07-09T06:37:15.275Z,16.80
2018-07-09T06:39:46.921Z,17.00
2018-07-09T06:42:18.628Z,17.20
2018-07-09T06:44:50.263Z,17.30
2018-07-09T06:49:53.328Z,17.00
2018-07-09T06:52:25.719Z,17.20
2018-07-09T06:54:57.341Z,17.40
2018-07-09T06:57:29.031Z,17.60
2018-07-09T07:05:03.731Z,17.80
2018-07-09T07:07:35.645Z,17.80
2018-07-09T07:10:08.319Z,17.90
2018-07-09T07:12:40.217Z,17.80
2018-07-09T07:15:12.108Z,17.80
2018-07-09T07:17:44.052Z,18.00
2018-07-09T07:20:15.915Z,18.00
2018-07-09T07:22:47.867Z,18.00
2018-07-09T07:25:19.632Z,18.10
2018-07-09T07:27:51.439Z,18.10
2018-07-09T07:32:54.682Z,18.30
2018-07-09T07:35:26.291Z,18.50
2018-07-09T07:37:58.112Z,18.50
2018-07-09T07:40:29.855Z,18.70
2018-07-09T07:43:01.642Z,18.80
2018-07-09T07:45:33.305Z,18.90
2018-07-09T07:48:05.166Z,18.90
2018-07-09T07:53:08.340Z,19.00
2018-07-09T07:55:40.008Z,19.20
2018-07-09T07:58:11.727Z,19.20
2018-07-09T08:00:43.429Z,19.20
2018-07-09T08:03:15.122Z,19.30
2018-07-09T08:05:46.801Z,19.60
2018-07-09T08:10:49.394Z,19.70
2018-07-09T08:13:28.997Z,19.90
2018-07-09T08:15:52.632Z,20.00
2018-07-09T08:18:24.405Z,19.80
2018-07-09T08:20:56.091Z,19.70
2018-07-09T08:23:27.738Z,19.80
2018-07-09T08:28:30.518Z,20.30
2018-07-09T08:31:02.236Z,20.40
2018-07-09T08:33:33.841Z,20.40
2018-07-09T08:43:38.750Z,21.30
2018-07-09T08:46:10.443Z,21.50
2018-07-09T08:48:42.119Z,21.20
2018-07-09T08:51:13.839Z,21.20
2018-07-09T08:53:45.626Z,21.20
2018-07-09T08:58:48.454Z,21.80
2018-07-09T09:01:20.077Z,21.60
2018-07-09T09:03:51.933Z,22.00
2018-07-09T09:06:23.518Z,22.00
2018-07-09T09:08:55.402Z,21.80
2018-07-09T09:13:58.042Z,21.70
2018-07-09T09:16:29.674Z,21.40
2018-07-09T09:21:32.226Z,22.30
2018-07-09T09:24:04.004Z,22.20
2018-07-09T09:29:06.838Z,22.60
2018-07-09T09:31:38.569Z,22.70
2018-07-09T09:34:10.431Z,22.90
2018-07-09T09:36:42.147Z,22.80
2018-07-09T09:41:44.890Z,22.70
2018-07-09T09:44:16.639Z,22.50
2018-07-09T09:46:48.297Z,22.20
2018-07-09T09:49:20.065Z,22.10
2018-07-09T09:54:23.207Z,22.50
2018-07-09T09:56:55.292Z,22.90
2018-07-09T09:59:27.096Z,23.10
2018-07-09T10:01:59.053Z,23.50
2018-07-09T10:04:31.250Z,23.80
2018-07-09T10:07:03.191Z,23.50
2018-07-09T10:09:34.956Z,23.30
2018-07-09T10:12:07.027Z,23.20
2018-07-09T10:14:38.727Z,23.10
2018-07-09T10:17:10.521Z,23.10
2018-07-09T10:19:42.254Z,22.80
2018-07-09T10:22:13.951Z,22.60
2018-07-09T10:24:45.815Z,22.60
2018-07-09T10:27:17.619Z,22.80
2018-07-09T10:32:20.346Z,22.50
2018-07-09T10:34:52.121Z,22.80
2018-07-09T10:37:23.804Z,23.00
2018-07-09T10:39:55.575Z,23.10
2018-07-09T10:42:27.276Z,23.60
2018-07-09T10:44:58.942Z,23.70
2018-07-09T10:47:30.915Z,23.40
2018-07-09T10:50:02.621Z,23.00
2018-07-09T10:52:34.267Z,22.80
2018-07-09T10:55:06.199Z,22.90
2018-07-09T10:57:37.956Z,22.60
2018-07-09T11:00:09.750Z,22.80
2018-07-09T11:05:12.696Z,22.70
2018-07-09T11:07:44.383Z,22.60
2018-07-09T11:10:16.174Z,23.10
2018-07-09T11:12:47.899Z,23.40
2018-07-09T11:15:19.682Z,23.50
2018-07-09T11:17:51.392Z,23.60
2018-07-09T11:20:23.176Z,23.80
2018-07-09T11:25:26.016Z,23.90
2018-07-09T11:27:57.878Z,23.60
2018-07-09T11:30:29.663Z,23.80
2018-07-09T11:33:01.475Z,24.10
2018-07-09T11:35:33.257Z,24.30
2018-07-09T11:38:04.979Z,24.30
2018-07-09T11:40:36.740Z,24.50
2018-07-09T11:43:08.464Z,24.90
2018-07-09T11:45:40.253Z,25.10
2018-07-09T11:48:11.947Z,25.10
2018-07-09T11:50:43.683Z,24.70
2018-07-09T11:53:15.440Z,24.30
2018-07-09T11:55:47.267Z,24.50
2018-07-09T11:58:18.852Z,24.50
2018-07-09T12:05:52.680Z,24.60
2018-07-09T12:08:24.386Z,24.30
2018-07-09T12:10:56.117Z,24.50
2018-07-09T12:13:27.761Z,24.60
2018-07-09T12:18:30.450Z,25.40
2018-07-09T12:21:02.303Z,25.60
2018-07-09T12:23:34.023Z,25.80
2018-07-09T12:26:05.993Z,26.10
2018-07-09T12:28:37.749Z,25.80
2018-07-09T12:31:09.416Z,25.00
2018-07-09T12:33:41.031Z,24.90
2018-07-09T12:36:12.781Z,24.80
2018-07-09T12:38:44.656Z,24.90
2018-07-09T12:41:16.454Z,25.00
2018-07-09T12:43:48.276Z,24.50
2018-07-09T12:46:20.103Z,24.50
2018-07-09T12:48:51.774Z,24.40
2018-07-09T12:51:23.502Z,24.60
2018-07-09T12:53:55.291Z,24.50
2018-07-09T12:56:27.055Z,25.00
2018-07-09T12:58:58.830Z,25.50
2018-07-09T13:01:30.507Z,25.70
2018-07-09T13:04:02.287Z,25.30
2018-07-09T13:06:33.977Z,24.90
2018-07-09T13:09:05.822Z,25.00
2018-07-09T13:11:37.640Z,24.70
2018-07-09T13:14:09.463Z,24.80
2018-07-09T13:16:41.243Z,24.60
2018-07-09T13:19:13.176Z,24.60
2018-07-09T13:21:44.990Z,24.90
2018-07-09T13:24:16.778Z,25.30
2018-07-09T13:26:48.582Z,25.40
2018-07-09T13:29:20.280Z,25.20
2018-07-09T13:31:52.166Z,25.30
2018-07-09T13:34:23.883Z,25.20
2018-07-09T13:36:56.253Z,25.00
2018-07-09T13:39:28.117Z,25.20
2018-07-09T13:41:59.861Z,25.00
2018-07-09T13:44:31.611Z,25.10
2018-07-09T13:47:03.441Z,25.50
2018-07-09T13:49:35.241Z,25.40
2018-07-09T13:52:07.134Z,25.20
2018-07-09T13:54:38.842Z,25.60
2018-07-09T13:57:10.659Z,25.50
2018-07-09T13:59:42.340Z,25.50
2018-07-09T14:02:13.978Z,25.20
2018-07-09T14:04:45.590Z,25.40
2018-07-09T14:09:48.496Z,25.60
2018-07-09T14:12:20.199Z,25.90
2018-07-09T14:14:51.852Z,26.00
2018-07-09T14:17:23.547Z,26.10
2018-07-09T14:23:01.632Z,26.40
2018-07-09T14:25:33.419Z,25.90
2018-07-09T14:28:05.342Z,26.10
2018-07-09T14:30:37.103Z,26.40
2018-07-09T14:33:09.081Z,26.40
2018-07-09T14:35:40.844Z,26.80
2018-07-09T14:38:12.566Z,26.80
2018-07-09T14:40:44.161Z,26.80
2018-07-09T14:43:15.891Z,27.20
2018-07-09T14:45:47.609Z,27.30
2018-07-09T14:48:19.401Z,27.70
2018-07-09T14:50:51.082Z,27.40
2018-07-09T14:53:22.830Z,27.60
2018-07-09T14:55:54.621Z,27.60
2018-07-09T14:58:26.340Z,27.70
2018-07-09T15:00:58.049Z,26.90
2018-07-09T15:03:29.794Z,26.90
2018-07-09T15:06:01.503Z,26.60
2018-07-09T15:08:33.254Z,27.50
2018-07-09T15:11:05.022Z,27.90
2018-07-09T15:16:08.002Z,27.80
2018-07-09T15:18:39.761Z,27.30
2018-07-09T15:21:11.652Z,27.60
2018-07-09T15:26:14.362Z,27.10
2018-07-09T15:28:46.012Z,27.70
2018-07-09T15:31:17.778Z,27.30
2018-07-09T15:33:49.392Z,26.80
2018-07-09T15:36:21.054Z,26.60
2018-07-09T15:38:52.920Z,26.70
2018-07-09T15:41:24.629Z,26.70
2018-07-09T15:44:02.862Z,27.20
2018-07-09T15:46:34.701Z,27.10
2018-07-09T15:49:06.627Z,26.80
2018-07-09T15:51:38.707Z,27.10
2018-07-09T16:01:43.959Z,28.10
2018-07-09T16:04:15.643Z,27.60
2018-07-09T16:09:18.387Z,27.90
2018-07-09T16:14:21.323Z,27.80
2018-07-09T16:16:52.938Z,27.60
2018-07-09T16:24:27.522Z,28.50
2018-07-09T16:26:59.146Z,28.50
2018-07-09T16:29:30.827Z,28.80
2018-07-09T16:32:02.434Z,28.30
2018-07-09T16:34:34.151Z,27.90
2018-07-09T16:37:06.834Z,28.00
2018-07-09T16:39:38.564Z,28.30
2018-07-09T16:42:10.354Z,27.80
2018-07-09T16:44:42.145Z,27.60
2018-07-09T16:49:44.939Z,26.80
2018-07-09T16:54:48.140Z,27.70
2018-07-09T16:57:19.899Z,27.90
2018-07-09T16:59:51.645Z,28.10
2018-07-09T17:02:23.459Z,28.30
2018-07-09T17:04:55.155Z,28.60
2018-07-09T17:07:26.846Z,28.00
2018-07-09T17:12:29.588Z,27.60
2018-07-09T17:17:32.438Z,27.80
2018-07-09T17:22:35.287Z,27.60
2018-07-09T17:25:07.454Z,28.30
2018-07-09T17:27:39.067Z,27.40
2018-07-09T17:30:10.799Z,26.00
2018-07-09T17:32:42.463Z,25.40
2018-07-09T17:35:14.181Z,24.80
2018-07-09T17:37:46.074Z,25.00
2018-07-09T17:42:49.128Z,24.40
2018-07-09T17:45:21.676Z,24.20
2018-07-09T18:00:30.986Z,23.00
2018-07-09T18:03:03.478Z,23.00
2018-07-09T18:08:06.716Z,22.80
2018-07-09T18:10:38.597Z,23.00
2018-07-09T18:13:10.465Z,22.50
2018-07-09T18:15:42.530Z,22.10
2018-07-09T18:20:45.480Z,21.80
2018-07-09T18:25:48.347Z,21.90
2018-07-09T18:30:51.188Z,22.10
2018-07-09T18:35:54.506Z,22.50
2018-07-09T18:38:26.336Z,22.50
2018-07-09T18:40:58.101Z,22.00
2018-07-09T18:46:00.941Z,21.80
2018-07-09T18:48:32.722Z,21.70
2018-07-09T18:53:36.396Z,21.60
2018-07-09T18:56:08.423Z,21.70
2018-07-09T19:01:11.599Z,21.40
2018-07-09T19:07:28.859Z,21.40
2018-07-09T19:12:36.469Z,21.40
2018-07-09T19:18:03.427Z,20.60
2018-07-09T19:21:51.103Z,20.50
2018-07-09T19:24:20.685Z,20.70
2018-07-09T19:26:50.289Z,20.50
2018-07-09T19:29:20.056Z,20.30
2018-07-09T19:31:49.663Z,20.30
2018-07-09T19:34:19.211Z,20.20
2018-07-09T19:39:19.472Z,20.00
2018-07-09T19:41:49.108Z,20.00
2018-07-09T19:44:18.651Z,20.10
2018-07-09T19:46:48.276Z,19.90
2018-07-09T19:49:17.827Z,19.90
2018-07-09T19:51:47.362Z,19.70
2018-07-09T19:54:17.133Z,19.50
2018-07-09T19:56:46.851Z,19.50
2018-07-09T19:59:16.385Z,19.50
2018-07-09T20:04:16.102Z,19.80
2018-07-09T20:06:45.660Z,19.90
2018-07-09T20:09:20.477Z,19.50
2018-07-09T20:14:29.380Z,20.00
2018-07-09T20:17:04.178Z,19.90
2018-07-09T20:19:33.788Z,19.90
2018-07-09T20:24:33.047Z,19.70
2018-07-09T20:27:03.381Z,19.50
2018-07-09T20:29:32.932Z,19.50
2018-07-09T20:32:02.479Z,19.60
2018-07-09T20:34:32.059Z,19.60
2018-07-09T20:37:01.631Z,19.70
2018-07-09T20:39:31.201Z,19.20
2018-07-09T20:42:01.722Z,19.20
2018-07-09T20:44:31.339Z,19.30
2018-07-09T20:47:00.879Z,19.20
2018-07-09T20:49:30.529Z,19.00
2018-07-09T20:52:00.173Z,18.70
2018-07-09T20:54:30.761Z,18.60
2018-07-09T20:57:00.458Z,18.60
2018-07-09T20:59:30.022Z,18.80
2018-07-09T21:01:59.649Z,19.00
2018-07-09T21:07:01.151Z,19.10
2018-07-09T21:09:31.934Z,18.80
2018-07-09T21:12:05.963Z,18.50
2018-07-09T21:14:35.518Z,18.40
2018-07-09T21:17:05.058Z,18.50
2018-07-09T21:19:34.638Z,18.30
2018-07-09T21:22:04.216Z,18.30
2018-07-09T21:24:33.790Z,18.30
2018-07-09T21:29:32.931Z,18.10
2018-07-09T21:34:32.421Z,18.30
2018-07-09T21:37:01.939Z,18.20
2018-07-09T21:42:00.986Z,18.30
2018-07-09T21:44:30.463Z,18.40
2018-07-09T21:47:00.181Z,18.20
2018-07-09T21:49:29.811Z,17.90
2018-07-09T21:54:29.166Z,17.90
2018-07-09T21:56:58.740Z,17.80
2018-07-09T21:59:28.238Z,17.90
2018-07-09T22:01:57.767Z,17.80
2018-07-09T22:04:27.341Z,17.60
2018-07-09T22:06:56.859Z,17.60
2018-07-09T22:09:26.450Z,17.80
2018-07-09T22:11:55.980Z,17.80
2018-07-09T22:14:25.538Z,17.50
2018-07-09T22:19:24.780Z,17.50
2018-07-09T22:21:54.521Z,17.70
2018-07-09T22:24:24.019Z,17.50
2018-07-09T22:29:23.241Z,17.50
2018-07-09T22:34:25.827Z,17.50
2018-07-09T22:36:57.891Z,17.50
2018-07-09T22:39:29.546Z,17.50
2018-07-09T22:44:32.259Z,16.90
2018-07-09T22:49:34.886Z,17.20
2018-07-09T22:52:06.698Z,17.20
2018-07-09T23:02:12.642Z,17.20
2018-07-09T23:04:44.260Z,17.20
2018-07-09T23:13:22.668Z,17.70
2018-07-09T23:22:19.704Z,17.10
2018-07-09T23:24:54.799Z,16.80
2018-07-09T23:27:29.939Z,17.00
2018-07-09T23:29:59.459Z,16.60
2018-07-09T23:32:29.016Z,16.50
2018-07-09T23:34:58.567Z,16.40
2018-07-09T23:37:28.659Z,16.40
2018-07-09T23:39:58.462Z,16.30
2018-07-09T23:42:28.188Z,16.50
2018-07-09T23:44:57.699Z,17.10
2018-07-09T23:47:27.182Z,17.20
2018-07-09T23:49:57.279Z,17.10
2018-07-09T23:52:26.819Z,16.60
2018-07-09T23:54:56.427Z,16.70
2018-07-09T23:58:09.345Z,16.70
